createdAt,value
2023-02-21T00:00:54.023Z,11.50
2023-02-21T00:03:39.604Z,11.50
2023-02-21T00:06:27.932Z,11.50
2023-02-21T00:09:13.614Z,11.40
2023-02-21T00:12:02.574Z,11.30
2023-02-21T00:14:47.977Z,11.30
2023-02-21T00:17:33.428Z,11.20
2023-02-21T00:20:18.824Z,11.10
2023-02-21T00:23:05.170Z,11.10
2023-02-21T00:25:50.857Z,11.00
2023-02-21T00:28:36.490Z,10.90
2023-02-21T00:31:23.766Z,10.90
2023-02-21T00:34:10.368Z,10.70
2023-02-21T00:36:55.977Z,10.60
2023-02-21T00:39:42.090Z,10.60
2023-02-21T00:42:27.449Z,10.60
2023-02-21T00:45:12.859Z,10.50
2023-02-21T00:47:58.255Z,10.40
2023-02-21T00:50:43.705Z,10.40
2023-02-21T00:53:29.301Z,10.30
2023-02-21T00:56:14.972Z,10.20
2023-02-21T00:59:00.465Z,10.10
2023-02-21T01:01:45.997Z,10.10
2023-02-21T01:04:31.470Z,10.00
2023-02-21T01:07:17.145Z,9.90
2023-02-21T01:10:02.649Z,9.90
2023-02-21T01:12:48.569Z,9.90
2023-02-21T01:15:34.218Z,10.00
2023-02-21T01:18:19.806Z,9.90
2023-02-21T01:21:05.329Z,10.00
2023-02-21T01:23:52.845Z,10.00
2023-02-21T01:26:38.226Z,10.10
2023-02-21T01:29:23.645Z,10.10
2023-02-21T01:32:09.904Z,10.10
2023-02-21T01:34:57.724Z,10.20
2023-02-21T01:37:43.049Z,10.20
2023-02-21T01:40:33.816Z,10.20
2023-02-21T01:43:20.782Z,10.20
2023-02-21T01:46:09.117Z,10.20
2023-02-21T01:48:55.309Z,10.30
2023-02-21T01:51:45.334Z,10.20
2023-02-21T01:54:32.122Z,10.20
2023-02-21T01:57:20.033Z,10.20
2023-02-21T02:00:07.547Z,10.30
2023-02-21T02:03:05.734Z,10.30
2023-02-21T02:05:52.529Z,10.30
2023-02-21T02:08:42.270Z,10.30
2023-02-21T02:11:40.227Z,10.30
2023-02-21T02:14:36.503Z,10.30
2023-02-21T02:23:21.232Z,10.20
2023-02-21T02:26:09.573Z,10.20
2023-02-21T02:29:08.539Z,10.30
2023-02-21T02:31:36.001Z,10.40
2023-02-21T02:34:27.634Z,10.40
2023-02-21T02:37:10.760Z,10.50
2023-02-21T02:39:37.610Z,10.60
2023-02-21T02:42:28.346Z,10.70
2023-02-21T02:45:05.811Z,10.80
2023-02-21T02:47:38.701Z,10.80
2023-02-21T02:50:08.303Z,10.80
2023-02-21T02:52:36.612Z,10.80
2023-02-21T02:55:23.952Z,10.90
2023-02-21T02:57:52.169Z,11.00
2023-02-21T03:00:20.470Z,11.00
2023-02-21T03:03:01.065Z,11.00
2023-02-21T03:05:32.871Z,11.10
2023-02-21T03:08:26.568Z,11.10
2023-02-21T03:11:23.742Z,11.20
2023-02-21T03:14:09.587Z,11.10
2023-02-21T03:16:47.197Z,11.10
2023-02-21T03:19:25.495Z,11.20
2023-02-21T03:22:18.588Z,11.20
2023-02-21T03:24:48.589Z,11.20
2023-02-21T03:27:16.814Z,11.20
2023-02-21T03:30:02.912Z,11.20
2023-02-21T03:32:38.911Z,11.20
2023-02-21T03:35:06.579Z,11.20
2023-02-21T03:37:36.191Z,11.10
2023-02-21T03:40:06.419Z,11.10
2023-02-21T03:42:34.562Z,11.20
2023-02-21T03:45:01.748Z,11.20
2023-02-21T03:47:28.873Z,11.20
2023-02-21T03:49:55.770Z,11.20
2023-02-21T03:52:22.778Z,11.10
2023-02-21T03:54:50.623Z,11.10
2023-02-21T03:57:20.448Z,11.20
2023-02-21T03:59:49.849Z,11.20
2023-02-21T04:02:17.255Z,11.20
2023-02-21T04:04:44.960Z,11.10
2023-02-21T04:07:18.677Z,11.20
2023-02-21T04:09:47.222Z,11.10
2023-02-21T04:12:18.885Z,11.10
2023-02-21T04:14:45.877Z,11.20
2023-02-21T04:17:12.998Z,11.20
2023-02-21T04:19:40.611Z,11.20
2023-02-21T04:22:07.645Z,11.20
2023-02-21T04:24:35.370Z,11.20
2023-02-21T04:27:02.399Z,11.20
2023-02-21T04:29:33.252Z,11.20
2023-02-21T04:32:00.826Z,11.20
2023-02-21T04:34:27.981Z,11.20
2023-02-21T04:36:54.925Z,11.20
2023-02-21T04:39:21.787Z,11.20
2023-02-21T04:41:49.965Z,11.20
2023-02-21T04:44:18.210Z,11.20
2023-02-21T04:46:45.366Z,11.20
2023-02-21T04:49:13.220Z,11.10
2023-02-21T04:51:40.201Z,11.10
2023-02-21T04:54:07.839Z,11.10
2023-02-21T04:56:34.955Z,11.10
2023-02-21T04:59:01.774Z,11.00
2023-02-21T05:01:31.427Z,11.00
2023-02-21T05:04:00.026Z,10.90
2023-02-21T05:06:28.744Z,10.90
2023-02-21T05:08:55.756Z,10.90
2023-02-21T05:11:23.504Z,10.90
2023-02-21T05:13:50.940Z,10.80
2023-02-21T05:16:18.318Z,10.80
2023-02-21T05:18:46.910Z,10.80
2023-02-21T05:21:14.950Z,10.80
2023-02-21T05:23:54.275Z,10.80
2023-02-21T05:26:22.481Z,10.90
2023-02-21T05:28:49.268Z,10.80
2023-02-21T05:31:16.407Z,10.80
2023-02-21T05:33:43.440Z,10.80
2023-02-21T05:36:10.322Z,10.90
2023-02-21T05:38:46.450Z,10.90
2023-02-21T05:41:13.965Z,10.90
2023-02-21T05:43:42.850Z,10.90
2023-02-21T05:46:20.509Z,10.90
2023-02-21T05:48:47.410Z,10.90
2023-02-21T05:51:15.727Z,10.90
2023-02-21T05:53:43.076Z,10.80
2023-02-21T05:56:10.653Z,10.80
2023-02-21T05:58:37.857Z,10.80
2023-02-21T06:01:04.986Z,10.80
2023-02-21T06:03:32.153Z,10.70
2023-02-21T06:05:59.119Z,10.80
2023-02-21T06:08:26.038Z,10.80
2023-02-21T06:10:52.926Z,10.80
2023-02-21T06:13:19.773Z,10.80
2023-02-21T06:15:46.662Z,10.90
2023-02-21T06:18:15.938Z,10.90
2023-02-21T06:20:44.281Z,11.00
2023-02-21T06:23:11.163Z,11.00
2023-02-21T06:25:37.968Z,11.00
2023-02-21T06:28:04.963Z,11.00
2023-02-21T06:30:31.925Z,11.00
2023-02-21T06:32:58.881Z,11.10
2023-02-21T06:35:25.677Z,11.10
2023-02-21T06:37:52.523Z,11.20
2023-02-21T06:40:19.480Z,11.30
2023-02-21T06:42:46.765Z,11.20
2023-02-21T06:45:13.772Z,11.30
2023-02-21T06:47:40.697Z,11.30
2023-02-21T06:50:10.085Z,11.30
2023-02-21T06:52:37.180Z,11.20
2023-02-21T06:55:04.544Z,11.30
2023-02-21T06:57:31.446Z,11.30
2023-02-21T06:59:58.294Z,11.30
2023-02-21T07:02:25.370Z,11.30
2023-02-21T07:04:52.444Z,11.40
2023-02-21T07:07:19.376Z,11.40
2023-02-21T07:09:46.251Z,11.40
2023-02-21T07:12:13.141Z,11.40
2023-02-21T07:14:39.999Z,11.50
2023-02-21T07:17:07.277Z,11.50
2023-02-21T07:19:34.237Z,11.50
2023-02-21T07:22:01.230Z,11.50
2023-02-21T07:24:28.068Z,11.50
2023-02-21T07:26:55.539Z,11.50
2023-02-21T07:29:22.910Z,11.60
2023-02-21T07:31:49.975Z,11.70
2023-02-21T07:34:17.253Z,11.70
2023-02-21T07:36:44.446Z,11.80
2023-02-21T07:39:11.656Z,11.90
2023-02-21T07:41:38.553Z,11.90
2023-02-21T07:44:07.791Z,12.00
2023-02-21T07:46:34.891Z,12.00
2023-02-21T07:49:01.930Z,11.80
2023-02-21T07:51:32.215Z,11.90
2023-02-21T07:53:59.127Z,11.90
2023-02-21T07:56:25.896Z,11.90
2023-02-21T07:58:52.747Z,12.00
2023-02-21T08:01:23.816Z,11.90
2023-02-21T08:03:50.693Z,12.00
2023-02-21T08:06:18.462Z,12.00
2023-02-21T08:08:45.764Z,12.10
2023-02-21T08:11:12.773Z,12.10
2023-02-21T08:13:39.800Z,12.20
2023-02-21T08:16:06.786Z,12.30
2023-02-21T08:18:33.685Z,12.40
2023-02-21T08:21:00.590Z,12.40
2023-02-21T08:23:27.517Z,12.40
2023-02-21T08:25:54.349Z,12.30
2023-02-21T08:28:21.201Z,12.30
2023-02-21T08:30:47.975Z,12.30
2023-02-21T08:33:14.878Z,12.30
2023-02-21T08:35:41.750Z,12.30
2023-02-21T08:38:10.458Z,12.40
2023-02-21T08:40:37.295Z,12.40
2023-02-21T08:43:06.042Z,12.50
2023-02-21T08:45:33.148Z,12.60
2023-02-21T08:48:00.122Z,12.70
2023-02-21T08:50:28.144Z,12.80
2023-02-21T08:52:56.068Z,12.90
2023-02-21T08:55:23.750Z,13.00
2023-02-21T08:57:52.942Z,13.10
2023-02-21T09:00:23.327Z,13.10
2023-02-21T09:02:51.642Z,13.20
2023-02-21T09:05:30.494Z,13.30
2023-02-21T09:08:01.296Z,13.40
2023-02-21T09:10:35.681Z,13.40
2023-02-21T09:13:04.119Z,13.40
2023-02-21T09:15:31.848Z,13.50
2023-02-21T09:17:58.765Z,13.50
2023-02-21T09:20:26.444Z,13.50
2023-02-21T09:22:53.340Z,13.60
2023-02-21T09:25:24.644Z,13.60
2023-02-21T09:27:54.380Z,13.60
2023-02-21T09:30:26.082Z,13.70
2023-02-21T09:32:54.654Z,13.70
2023-02-21T09:35:22.304Z,13.70
2023-02-21T09:37:49.244Z,13.80
2023-02-21T09:40:21.914Z,13.80
2023-02-21T09:42:52.822Z,13.70
2023-02-21T09:45:22.285Z,13.70
2023-02-21T09:47:55.335Z,13.70
2023-02-21T09:50:30.409Z,13.80
2023-02-21T09:53:00.983Z,13.70
2023-02-21T09:55:35.433Z,13.80
2023-02-21T09:58:02.858Z,13.80
2023-02-21T10:00:38.196Z,13.90
2023-02-21T10:03:10.918Z,13.90
2023-02-21T10:06:27.966Z,13.90
2023-02-21T10:09:03.210Z,14.10
2023-02-21T10:11:53.906Z,14.20
2023-02-21T10:14:29.656Z,14.20
2023-02-21T10:17:12.995Z,14.30
2023-02-21T10:19:43.974Z,14.30
2023-02-21T10:22:20.464Z,14.30
2023-02-21T10:24:49.286Z,14.40
2023-02-21T10:27:30.247Z,14.40
2023-02-21T10:30:05.898Z,14.40
2023-02-21T10:32:33.248Z,14.50
2023-02-21T10:35:00.332Z,14.50
2023-02-21T10:37:30.057Z,14.50
2023-02-21T10:40:00.812Z,14.50
2023-02-21T10:42:44.654Z,14.60
2023-02-21T10:45:13.373Z,14.60
2023-02-21T10:48:07.849Z,14.60
2023-02-21T10:50:52.919Z,14.70
2023-02-21T10:53:29.730Z,14.70
2023-02-21T10:56:07.393Z,14.70
2023-02-21T10:58:35.718Z,14.70
2023-02-21T11:01:52.190Z,14.80
2023-02-21T11:04:25.559Z,14.80
2023-02-21T11:07:11.588Z,14.90
2023-02-21T11:09:42.889Z,14.80
2023-02-21T11:12:25.322Z,14.80
2023-02-21T11:14:52.185Z,14.90
2023-02-21T11:17:26.499Z,14.90
2023-02-21T11:19:53.400Z,15.00
2023-02-21T11:22:24.786Z,14.90
2023-02-21T11:25:22.146Z,14.90
2023-02-21T11:28:10.804Z,15.00
2023-02-21T11:30:40.529Z,15.00
2023-02-21T11:33:09.122Z,15.10
2023-02-21T11:35:44.547Z,15.10
2023-02-21T11:38:38.253Z,15.20
2023-02-21T11:41:16.971Z,15.20
2023-02-21T11:43:48.936Z,15.20
2023-02-21T11:46:32.112Z,15.20
2023-02-21T11:49:22.099Z,15.20
2023-02-21T11:52:01.709Z,15.30
2023-02-21T11:54:30.403Z,15.40
2023-02-21T11:57:24.585Z,15.40
2023-02-21T12:00:06.322Z,15.50
2023-02-21T12:02:39.573Z,15.60
2023-02-21T12:05:47.237Z,15.70
2023-02-21T12:08:39.909Z,15.80
2023-02-21T12:11:09.620Z,15.90
2023-02-21T12:14:17.803Z,15.90
2023-02-21T12:16:50.150Z,15.90
2023-02-21T12:19:29.231Z,16.00
2023-02-21T12:22:22.583Z,16.10
2023-02-21T12:25:10.638Z,16.20
2023-02-21T12:28:04.171Z,16.20
2023-02-21T12:30:55.939Z,16.40
2023-02-21T12:33:44.159Z,16.40
2023-02-21T12:36:36.670Z,16.50
2023-02-21T12:39:35.360Z,16.60
2023-02-21T12:42:56.905Z,16.60
2023-02-21T12:45:52.287Z,16.60
2023-02-21T12:48:45.118Z,16.70
2023-02-21T12:51:20.253Z,16.90
2023-02-21T12:53:47.719Z,17.00
2023-02-21T12:56:25.651Z,17.00
2023-02-21T12:59:23.744Z,17.00
2023-02-21T13:02:19.078Z,17.00
2023-02-21T13:05:01.480Z,17.10
2023-02-21T13:07:47.684Z,17.10
2023-02-21T13:10:26.497Z,17.20
2023-02-21T13:13:22.755Z,17.30
2023-02-21T13:15:50.486Z,17.40
2023-02-21T13:18:24.133Z,17.50
2023-02-21T13:21:00.099Z,17.60
2023-02-21T13:24:07.097Z,17.60
2023-02-21T13:26:58.443Z,17.50
2023-02-21T13:29:29.459Z,17.50
2023-02-21T13:32:01.873Z,17.50
2023-02-21T13:34:35.043Z,17.60
2023-02-21T13:37:05.564Z,17.70
2023-02-21T13:39:37.495Z,17.70
2023-02-21T13:42:17.623Z,17.80
2023-02-21T13:45:22.298Z,17.90
2023-02-21T13:48:01.325Z,17.90
2023-02-21T13:50:36.909Z,18.00
2023-02-21T13:53:35.538Z,18.00
2023-02-21T13:56:08.587Z,18.00
2023-02-21T13:58:49.245Z,18.10
2023-02-21T14:01:29.458Z,18.00
2023-02-21T14:03:59.810Z,17.90
2023-02-21T14:06:37.564Z,17.90
2023-02-21T14:09:17.619Z,17.90
2023-02-21T14:11:49.562Z,18.00
2023-02-21T14:14:21.702Z,18.00
2023-02-21T14:16:53.704Z,18.00
2023-02-21T14:19:26.705Z,18.00
2023-02-21T14:22:03.322Z,18.10
2023-02-21T14:24:38.589Z,18.10
2023-02-21T14:27:28.209Z,18.10
2023-02-21T14:30:01.389Z,18.10
2023-02-21T14:32:42.007Z,18.20
2023-02-21T14:35:38.961Z,18.10
2023-02-21T14:38:19.395Z,18.20
2023-02-21T14:41:16.228Z,18.20
2023-02-21T14:43:46.502Z,18.10
2023-02-21T14:46:16.206Z,18.10
2023-02-21T14:48:52.193Z,18.00
2023-02-21T14:52:08.366Z,18.00
2023-02-21T14:54:57.478Z,17.90
2023-02-21T14:57:51.706Z,17.80
2023-02-21T15:00:40.381Z,17.70
2023-02-21T15:03:17.696Z,17.70
2023-02-21T15:05:50.584Z,17.70
2023-02-21T15:08:19.287Z,17.70
2023-02-21T15:10:51.034Z,17.70
2023-02-21T15:13:22.775Z,17.80
2023-02-21T15:16:06.030Z,17.70
2023-02-21T15:18:38.478Z,17.70
2023-02-21T15:21:10.206Z,17.70
2023-02-21T15:23:39.189Z,17.70
2023-02-21T15:26:21.809Z,17.70
2023-02-21T15:29:12.194Z,17.70
2023-02-21T15:31:54.545Z,17.70
2023-02-21T15:34:23.381Z,17.60
2023-02-21T15:36:59.050Z,17.50
2023-02-21T15:39:38.733Z,17.40
2023-02-21T15:42:07.590Z,17.30
2023-02-21T15:45:27.488Z,17.20
2023-02-21T15:47:55.424Z,17.00
2023-02-21T15:50:36.032Z,16.80
2023-02-21T15:53:14.865Z,16.70
2023-02-21T15:55:43.927Z,16.60
2023-02-21T15:58:17.444Z,16.40
2023-02-21T16:01:07.416Z,16.30
2023-02-21T16:03:42.735Z,16.20
2023-02-21T16:06:21.706Z,16.00
2023-02-21T16:09:06.028Z,15.80
2023-02-21T16:11:45.549Z,15.60
2023-02-21T16:14:20.485Z,15.60
2023-02-21T16:16:53.759Z,15.40
2023-02-21T16:19:23.348Z,15.40
2023-02-21T16:21:51.150Z,15.20
2023-02-21T16:24:28.948Z,15.20
2023-02-21T16:27:25.310Z,15.10
2023-02-21T16:29:52.296Z,15.20
2023-02-21T16:32:20.808Z,15.00
2023-02-21T16:34:47.990Z,14.90
2023-02-21T16:37:15.503Z,14.90
2023-02-21T16:39:45.793Z,14.90
2023-02-21T16:42:12.842Z,14.80
2023-02-21T16:44:45.546Z,14.70
2023-02-21T16:47:17.163Z,14.70
2023-02-21T16:49:44.882Z,14.60
2023-02-21T16:52:17.629Z,14.50
2023-02-21T16:54:47.760Z,14.50
2023-02-21T16:57:14.903Z,14.50
2023-02-21T16:59:42.433Z,14.50
2023-02-21T17:02:15.257Z,14.40
2023-02-21T17:04:42.447Z,14.30
2023-02-21T17:07:09.633Z,14.20
2023-02-21T17:09:40.935Z,14.20
2023-02-21T17:12:08.229Z,14.20
2023-02-21T17:14:35.429Z,14.10
2023-02-21T17:17:02.406Z,14.10
2023-02-21T17:19:29.276Z,14.00
2023-02-21T17:21:58.179Z,14.00
2023-02-21T17:24:25.243Z,14.00
2023-02-21T17:26:53.760Z,13.90
2023-02-21T17:29:21.720Z,14.00
2023-02-21T17:31:56.006Z,13.90
2023-02-21T17:34:23.301Z,13.90
2023-02-21T17:36:51.755Z,13.80
2023-02-21T17:39:19.946Z,13.80
2023-02-21T17:41:48.419Z,13.70
2023-02-21T17:44:15.707Z,13.70
2023-02-21T17:46:57.809Z,13.70
2023-02-21T17:49:27.278Z,13.70
2023-02-21T17:51:54.594Z,13.70
2023-02-21T17:54:24.155Z,13.70
2023-02-21T17:56:51.841Z,13.60
2023-02-21T17:59:19.583Z,13.60
2023-02-21T18:01:46.945Z,13.60
2023-02-21T18:04:14.303Z,13.60
2023-02-21T18:06:42.291Z,13.60
2023-02-21T18:09:11.355Z,13.50
2023-02-21T18:11:38.450Z,13.50
2023-02-21T18:14:06.072Z,13.50
2023-02-21T18:16:33.142Z,13.50
2023-02-21T18:19:02.743Z,13.50
2023-02-21T18:21:29.783Z,13.40
2023-02-21T18:23:56.676Z,13.40
2023-02-21T18:26:23.683Z,13.40
2023-02-21T18:28:53.472Z,13.40
2023-02-21T18:31:20.768Z,13.40
2023-02-21T18:33:49.500Z,13.30
2023-02-21T18:36:16.728Z,13.30
2023-02-21T18:38:43.722Z,13.30
2023-02-21T18:41:12.615Z,13.20
2023-02-21T18:43:40.921Z,13.20
2023-02-21T18:46:13.664Z,13.20
2023-02-21T18:48:46.419Z,13.20
2023-02-21T18:51:15.600Z,13.30
2023-02-21T18:53:48.108Z,13.10
2023-02-21T18:56:17.337Z,13.10
2023-02-21T18:58:44.219Z,13.10
2023-02-21T19:01:15.063Z,13.10
2023-02-21T19:03:42.364Z,13.10
2023-02-21T19:06:12.762Z,13.10
2023-02-21T19:08:39.867Z,13.10
2023-02-21T19:11:07.053Z,13.10
2023-02-21T19:13:34.114Z,13.10
2023-02-21T19:16:01.080Z,13.00
2023-02-21T19:18:30.542Z,13.10
2023-02-21T19:20:58.218Z,13.10
2023-02-21T19:23:27.445Z,13.00
2023-02-21T19:25:55.482Z,13.00
2023-02-21T19:28:24.272Z,13.00
2023-02-21T19:30:51.603Z,13.00
2023-02-21T19:33:18.726Z,13.00
2023-02-21T19:35:46.168Z,12.90
2023-02-21T19:38:13.089Z,12.90
2023-02-21T19:40:41.115Z,12.90
2023-02-21T19:43:09.231Z,12.90
2023-02-21T19:45:36.246Z,12.80
2023-02-21T19:48:03.354Z,12.80
2023-02-21T19:50:31.073Z,12.80
2023-02-21T19:52:58.930Z,12.70
2023-02-21T19:55:27.793Z,12.70
2023-02-21T19:57:54.960Z,12.60
2023-02-21T20:00:23.944Z,12.60
2023-02-21T20:02:50.844Z,12.50
2023-02-21T20:05:17.907Z,12.60
2023-02-21T20:07:45.796Z,12.50
2023-02-21T20:10:13.358Z,12.50
2023-02-21T20:12:40.248Z,12.40
2023-02-21T20:15:10.698Z,12.40
2023-02-21T20:17:38.167Z,12.40
2023-02-21T20:20:12.011Z,12.40
2023-02-21T20:22:39.544Z,12.30
2023-02-21T20:25:07.123Z,12.30
2023-02-21T20:27:34.762Z,12.30
2023-02-21T20:30:01.962Z,12.50
2023-02-21T20:32:29.055Z,12.20
2023-02-21T20:34:56.833Z,12.30
2023-02-21T20:37:24.602Z,12.10
2023-02-21T20:39:51.505Z,12.00
2023-02-21T20:42:20.251Z,11.90
2023-02-21T20:44:48.362Z,12.00
2023-02-21T20:47:15.324Z,11.90
2023-02-21T20:49:46.616Z,11.80
2023-02-21T20:52:14.197Z,11.70
2023-02-21T20:54:41.246Z,11.70
2023-02-21T20:57:09.415Z,11.60
2023-02-21T20:59:38.975Z,11.60
2023-02-21T21:02:08.067Z,11.60
2023-02-21T21:04:38.141Z,11.50
2023-02-21T21:07:12.734Z,11.50
2023-02-21T21:09:40.130Z,11.50
2023-02-21T21:12:16.183Z,11.40
2023-02-21T21:14:45.068Z,11.40
2023-02-21T21:17:15.132Z,11.40
2023-02-21T21:19:43.898Z,11.30
2023-02-21T21:22:15.137Z,11.30
2023-02-21T21:24:42.561Z,11.20
2023-02-21T21:27:10.300Z,11.20
2023-02-21T21:29:39.108Z,11.20
2023-02-21T21:32:09.226Z,11.20
2023-02-21T21:34:39.017Z,11.10
2023-02-21T21:37:05.901Z,11.00
2023-02-21T21:39:35.379Z,11.00
2023-02-21T21:42:05.659Z,11.00
2023-02-21T21:44:33.097Z,10.90
2023-02-21T21:47:02.743Z,10.90
2023-02-21T21:49:32.526Z,10.80
2023-02-21T21:51:59.861Z,10.70
2023-02-21T21:54:30.363Z,10.70
2023-02-21T21:56:58.648Z,10.70
2023-02-21T21:59:26.947Z,10.60
2023-02-21T22:01:57.727Z,10.60
2023-02-21T22:04:28.896Z,10.60
2023-02-21T22:06:56.960Z,10.60
2023-02-21T22:09:25.548Z,10.50
2023-02-21T22:11:53.185Z,10.50
2023-02-21T22:14:22.809Z,10.50
2023-02-21T22:16:50.519Z,10.40
2023-02-21T22:19:18.818Z,10.40
2023-02-21T22:21:46.441Z,10.30
2023-02-21T22:24:15.305Z,10.20
2023-02-21T22:26:44.884Z,10.20
2023-02-21T22:29:15.602Z,10.10
2023-02-21T22:31:44.174Z,10.10
2023-02-21T22:34:23.577Z,10.10
2023-02-21T22:36:52.348Z,10.00
2023-02-21T22:39:19.976Z,10.10
2023-02-21T22:41:48.952Z,9.80
2023-02-21T22:44:16.925Z,9.90
2023-02-21T22:46:46.720Z,9.80
2023-02-21T22:49:16.732Z,9.90
2023-02-21T22:51:44.296Z,9.90
2023-02-21T22:54:15.995Z,9.80
2023-02-21T22:56:51.170Z,9.80
2023-02-21T22:59:19.912Z,9.80
2023-02-21T23:01:47.074Z,9.80
2023-02-21T23:04:25.335Z,9.80
2023-02-21T23:06:58.302Z,9.80
2023-02-21T23:09:26.922Z,9.80
2023-02-21T23:11:56.649Z,9.80
2023-02-21T23:14:23.533Z,9.70
2023-02-21T23:16:51.622Z,9.70
2023-02-21T23:19:18.548Z,9.60
2023-02-21T23:21:51.962Z,9.60
2023-02-21T23:24:20.778Z,9.60
2023-02-21T23:26:49.842Z,9.50
2023-02-21T23:29:23.974Z,9.50
2023-02-21T23:31:54.119Z,9.50
2023-02-21T23:34:21.110Z,9.50
2023-02-21T23:36:49.207Z,9.40
2023-02-21T23:39:16.354Z,9.50
2023-02-21T23:41:48.796Z,9.40
2023-02-21T23:44:16.606Z,9.40
2023-02-21T23:46:45.039Z,9.30
2023-02-21T23:49:15.781Z,9.30
2023-02-21T23:51:44.160Z,9.30
2023-02-21T23:54:11.799Z,9.30
2023-02-21T23:56:40.247Z,9.30
2023-02-21T23:59:07.741Z,9.30
